Time;durP1;ratioP1;P1;durP2;ratioP2;P2;SDS_P1;SDS_P2;PMS_P1;PMS_P2;Temp;Humidity;BMP_temperature;BMP_pressure;BME280_temperature;BME280_humidity;BME280_pressure;Samples;Min_cycle;Max_cycle;Signal;HPM_P1;HPM_P2
2023/01/15 00:04:12;;;;;;;25.13;11.60;;;;;;;;;;10435730;28;20436;-73
2023/01/15 00:09:14;;;;;;;26.30;11.80;;;;;;;;;;10438524;28;20511;-70
2023/01/15 00:14:14;;;;;;;24.02;11.73;;;;;;;;;;10425101;28;20056;-75
2023/01/15 00:19:14;;;;;;;27.53;12.43;;;;;;;;;;10448234;28;20112;-76
2023/01/15 00:29:33;;;;;;;29.10;11.40;;;;;;;;;;10447927;28;20071;-71
2023/01/15 00:34:34;;;;;;;23.95;10.07;;;;;;;;;;10446549;28;20108;-75
2023/01/15 00:39:34;;;;;;;31.13;11.57;;;;;;;;;;10445940;28;20063;-75
2023/01/15 00:44:34;;;;;;;29.20;11.67;;;;;;;;;;10447961;28;20107;-74
2023/01/15 00:49:35;;;;;;;24.85;10.90;;;;;;;;;;10446645;28;20590;-77
2023/01/15 00:54:35;;;;;;;30.20;11.07;;;;;;;;;;10445441;28;20021;-75
2023/01/15 00:59:35;;;;;;;28.23;11.65;;;;;;;;;;10445078;28;20043;-76
2023/01/15 01:04:36;;;;;;;25.53;11.87;;;;;;;;;;10428175;28;20487;-77
2023/01/15 01:09:36;;;;;;;32.00;12.68;;;;;;;;;;10444621;28;20418;-75
2023/01/15 01:14:36;;;;;;;36.67;14.43;;;;;;;;;;10392509;28;20030;-74
2023/01/15 01:19:37;;;;;;;38.78;13.75;;;;;;;;;;10428161;28;20101;-77
2023/01/15 01:24:37;;;;;;;30.97;13.57;;;;;;;;;;10426989;28;20033;-74
2023/01/15 01:29:37;;;;;;;35.47;13.15;;;;;;;;;;10444833;28;20260;-76
2023/01/15 01:34:38;;;;;;;35.58;13.40;;;;;;;;;;10445644;28;20143;-77
2023/01/15 01:39:38;;;;;;;33.20;13.33;;;;;;;;;;10443301;28;20091;-77
2023/01/15 01:44:38;;;;;;;34.83;14.90;;;;;;;;;;10444970;28;20271;-76
2023/01/15 01:49:39;;;;;;;34.65;13.20;;;;;;;;;;10444492;28;20029;-73
2023/01/15 01:54:39;;;;;;;33.58;14.48;;;;;;;;;;10453284;28;20107;-73
2023/01/15 01:59:40;;;;;;;33.97;15.18;;;;;;;;;;10458166;28;20021;-76
2023/01/15 02:04:40;;;;;;;33.80;13.90;;;;;;;;;;10433080;28;20412;-76
2023/01/15 02:09:40;;;;;;;29.67;13.32;;;;;;;;;;10426780;28;20418;-76
2023/01/15 02:14:47;;;;;;;37.42;13.32;;;;;;;;;;10443598;28;20025;-78
2023/01/15 02:20:08;;;;;;;36.92;15.38;;;;;;;;;;10425880;28;20043;-77
2023/01/15 02:25:17;;;;;;;33.22;14.85;;;;;;;;;;10419055;28;20132;-79
2023/01/15 02:30:23;;;;;;;34.88;14.38;;;;;;;;;;10441958;28;20068;-73
2023/01/15 02:35:39;;;;;;;39.30;13.30;;;;;;;;;;10441486;28;20025;-76
2023/01/15 02:40:41;;;;;;;33.47;12.68;;;;;;;;;;10440784;28;20045;-77
2023/01/15 02:45:44;;;;;;;31.73;12.90;;;;;;;;;;10425072;28;20082;-76
2023/01/15 02:50:48;;;;;;;32.10;13.60;;;;;;;;;;10441472;28;20107;-79
2023/01/15 02:55:49;;;;;;;33.30;13.35;;;;;;;;;;10424814;28;20020;-76
2023/01/15 03:00:52;;;;;;;27.60;11.82;;;;;;;;;;10440714;28;20024;-76
2023/01/15 03:05:55;;;;;;;31.73;13.65;;;;;;;;;;10440965;28;20025;-75
2023/01/15 03:11:02;;;;;;;32.95;13.68;;;;;;;;;;10440438;28;20029;-77
2023/01/15 03:21:47;;;;;;;32.35;13.20;;;;;;;;;;10440965;28;20461;-75
2023/01/15 03:26:47;;;;;;;35.45;12.57;;;;;;;;;;10440192;28;20061;-76
2023/01/15 03:31:51;;;;;;;33.20;13.67;;;;;;;;;;10440441;28;20123;-75
2023/01/15 03:36:51;;;;;;;34.45;13.80;;;;;;;;;;10440228;28;20025;-78
2023/01/15 03:41:51;;;;;;;35.40;12.73;;;;;;;;;;10423856;28;20053;-77
2023/01/15 03:46:58;;;;;;;28.50;11.75;;;;;;;;;;10441623;28;20287;-76
2023/01/15 03:52:17;;;;;;;25.65;11.52;;;;;;;;;;10447424;28;20087;-73
2023/01/15 03:57:23;;;;;;;24.75;11.48;;;;;;;;;;10468271;28;20029;-79
2023/01/15 04:02:24;;;;;;;29.80;12.32;;;;;;;;;;10457167;28;20059;-76
2023/01/15 04:07:24;;;;;;;28.23;11.82;;;;;;;;;;10436437;28;20048;-74
2023/01/15 04:12:26;;;;;;;28.73;12.43;;;;;;;;;;10448043;28;20035;-72
2023/01/15 04:17:27;;;;;;;27.98;11.50;;;;;;;;;;10448493;28;20025;-79
2023/01/15 04:22:27;;;;;;;27.53;10.40;;;;;;;;;;10434648;28;20530;-76
2023/01/15 04:27:27;;;;;;;28.95;12.23;;;;;;;;;;10448288;28;20055;-76
2023/01/15 04:32:28;;;;;;;29.73;10.83;;;;;;;;;;10446635;28;20033;-74
2023/01/15 04:37:28;;;;;;;20.60;10.30;;;;;;;;;;10425434;28;20083;-76
2023/01/15 04:47:47;;;;;;;21.25;10.00;;;;;;;;;;10448360;28;20025;-75
2023/01/15 04:52:50;;;;;;;21.20;9.20;;;;;;;;;;10444585;28;20025;-77
2023/01/15 04:57:50;;;;;;;40.15;12.45;;;;;;;;;;10418710;28;20022;-73
2023/01/15 05:02:50;;;;;;;31.48;14.07;;;;;;;;;;10426610;28;20111;-76
2023/01/15 05:07:51;;;;;;;35.88;13.85;;;;;;;;;;10444942;28;20041;-75
2023/01/15 05:12:52;;;;;;;36.05;14.35;;;;;;;;;;10444510;28;20020;-76
2023/01/15 05:17:52;;;;;;;34.05;15.45;;;;;;;;;;10444060;28;20466;-75
2023/01/15 05:22:52;;;;;;;35.00;14.38;;;;;;;;;;10443340;28;20447;-74
2023/01/15 05:27:52;;;;;;;39.67;14.77;;;;;;;;;;10427201;28;20024;-71
2023/01/15 05:32:52;;;;;;;34.75;14.30;;;;;;;;;;10444481;28;20082;-71
2023/01/15 05:37:53;;;;;;;31.13;12.93;;;;;;;;;;10421189;28;20037;-76
2023/01/15 05:42:53;;;;;;;35.28;14.38;;;;;;;;;;10442858;28;20036;-75
2023/01/15 05:47:54;;;;;;;34.03;16.38;;;;;;;;;;10443730;28;20029;-72
2023/01/15 05:52:54;;;;;;;40.85;12.65;;;;;;;;;;10431683;28;20032;-75
2023/01/15 05:57:54;;;;;;;32.47;12.00;;;;;;;;;;10429775;28;20013;-75
2023/01/15 06:02:55;;;;;;;27.58;11.77;;;;;;;;;;10461418;28;20100;-72
2023/01/15 06:07:55;;;;;;;32.25;12.93;;;;;;;;;;10455679;28;20044;-73
2023/01/15 06:12:56;;;;;;;29.40;13.38;;;;;;;;;;10449298;28;20025;-72
2023/01/15 06:17:56;;;;;;;33.45;13.48;;;;;;;;;;10425879;28;20319;-76
2023/01/15 06:22:57;;;;;;;34.78;13.32;;;;;;;;;;10467238;22;20052;-74
2023/01/15 06:27:58;;;;;;;27.75;11.98;;;;;;;;;;10472011;28;20024;-76
2023/01/15 06:32:59;;;;;;;34.45;12.80;;;;;;;;;;10479003;28;20410;-76
2023/01/15 06:37:59;;;;;;;26.57;11.67;;;;;;;;;;10454368;28;20035;-79
2023/01/15 06:48:18;;;;;;;35.03;12.27;;;;;;;;;;10481474;28;20414;-71
2023/01/15 06:53:19;;;;;;;35.38;13.38;;;;;;;;;;10463186;28;20020;-75
2023/01/15 06:58:21;;;;;;;30.45;11.55;;;;;;;;;;10464133;28;20040;-76
2023/01/15 07:03:22;;;;;;;25.90;11.43;;;;;;;;;;10458573;28;20085;-74
2023/01/15 07:08:22;;;;;;;29.23;11.75;;;;;;;;;;10462125;28;20082;-78
2023/01/15 07:13:22;;;;;;;28.98;12.90;;;;;;;;;;10481096;28;20036;-75
2023/01/15 07:18:23;;;;;;;31.42;12.90;;;;;;;;;;10457836;28;20651;-72
2023/01/15 07:23:24;;;;;;;35.33;13.95;;;;;;;;;;10467140;28;20057;-77
2023/01/15 07:28:24;;;;;;;31.40;13.32;;;;;;;;;;10449210;28;20618;-73
2023/01/15 07:33:25;;;;;;;33.13;13.30;;;;;;;;;;10463412;28;20078;-74
2023/01/15 07:38:26;;;;;;;32.42;12.23;;;;;;;;;;10467243;28;20024;-76
2023/01/15 07:54:05;;;;;;;29.70;11.95;;;;;;;;;;10485894;28;20025;-77
2023/01/15 07:59:05;;;;;;;26.83;11.30;;;;;;;;;;10466107;28;20016;-74
2023/01/15 08:04:05;;;;;;;23.40;11.30;;;;;;;;;;10461789;28;20036;-77
2023/01/15 08:09:06;;;;;;;38.78;11.77;;;;;;;;;;10470747;28;20557;-77
2023/01/15 08:19:28;;;;;;;29.33;11.50;;;;;;;;;;10489940;28;20024;-72
2023/01/15 08:24:28;;;;;;;25.52;11.10;;;;;;;;;;10455567;28;20071;-74
2023/01/15 08:29:30;;;;;;;29.08;13.02;;;;;;;;;;10480219;28;20031;-76
2023/01/15 08:34:31;;;;;;;30.42;14.52;;;;;;;;;;10482764;28;20028;-72
2023/01/15 08:39:31;;;;;;;38.28;17.55;;;;;;;;;;10497124;28;20027;-72
2023/01/15 08:44:32;;;;;;;38.40;17.40;;;;;;;;;;10465993;28;20086;-72
2023/01/15 08:49:32;;;;;;;39.63;16.58;;;;;;;;;;10474554;28;20048;-76
2023/01/15 08:54:33;;;;;;;42.47;16.70;;;;;;;;;;10458718;28;20143;-73
2023/01/15 08:59:33;;;;;;;38.63;16.50;;;;;;;;;;10462183;28;20402;-74
2023/01/15 09:04:33;;;;;;;36.83;14.77;;;;;;;;;;10485522;28;20040;-73
2023/01/15 09:09:34;;;;;;;38.83;15.60;;;;;;;;;;10483866;28;20270;-73
2023/01/15 09:14:34;;;;;;;33.33;14.67;;;;;;;;;;10466504;28;20028;-72
2023/01/15 09:19:34;;;;;;;24.15;12.73;;;;;;;;;;10480741;28;20094;-72
2023/01/15 09:24:34;;;;;;;39.57;14.30;;;;;;;;;;10459959;28;20060;-73
2023/01/15 09:29:35;;;;;;;29.88;12.52;;;;;;;;;;10465313;28;20907;-72
2023/01/15 09:34:35;;;;;;;37.75;14.55;;;;;;;;;;10464824;28;20654;-76
2023/01/15 09:39:38;;;;;;;27.38;12.68;;;;;;;;;;10469190;28;20411;-75
2023/01/15 09:44:45;;;;;;;37.10;13.32;;;;;;;;;;10467552;28;20028;-71
2023/01/15 09:49:48;;;;;;;32.78;14.10;;;;;;;;;;10481958;28;20411;-73
2023/01/15 09:54:49;;;;;;;33.67;14.23;;;;;;;;;;10464828;28;20032;-72
2023/01/15 09:59:51;;;;;;;40.45;15.20;;;;;;;;;;10458308;28;20021;-73
2023/01/15 10:05:12;;;;;;;33.00;12.82;;;;;;;;;;10464532;28;20453;-73
2023/01/15 10:10:15;;;;;;;38.78;15.77;;;;;;;;;;10415318;28;20101;-73
2023/01/15 10:15:23;;;;;;;33.17;15.23;;;;;;;;;;10483976;28;20024;-72
2023/01/15 10:20:48;;;;;;;31.42;13.82;;;;;;;;;;10459257;28;20044;-76
2023/01/15 10:25:50;;;;;;;38.15;14.48;;;;;;;;;;10451040;28;20056;-71
2023/01/15 10:30:54;;;;;;;28.77;13.38;;;;;;;;;;10469587;28;20277;-74
2023/01/15 10:36:02;;;;;;;26.33;10.93;;;;;;;;;;10496188;28;20060;-72
2023/01/15 10:41:05;;;;;;;29.37;11.20;;;;;;;;;;10475150;28;20032;-77
2023/01/15 10:46:11;;;;;;;20.33;9.98;;;;;;;;;;10470167;28;20285;-80
2023/01/15 10:51:15;;;;;;;26.55;12.73;;;;;;;;;;10463315;28;20043;-77
2023/01/15 10:56:35;;;;;;;23.67;11.70;;;;;;;;;;10463788;28;20630;-78
2023/01/15 11:01:36;;;;;;;25.15;12.15;;;;;;;;;;10458892;28;20625;-71
2023/01/15 11:06:36;;;;;;;27.15;11.80;;;;;;;;;;10461491;28;20153;-79
2023/01/15 11:22:09;;;;;;;23.50;9.38;;;;;;;;;;10476856;28;20032;-73
2023/01/15 11:27:13;;;;;;;20.70;10.02;;;;;;;;;;10459078;28;20067;-75
2023/01/15 11:32:22;;;;;;;21.90;10.30;;;;;;;;;;10456209;28;20021;-74
2023/01/15 11:37:22;;;;;;;22.13;9.43;;;;;;;;;;10474031;28;20078;-76
2023/01/15 11:53:17;;;;;;;16.20;8.25;;;;;;;;;;10477389;28;20537;-76
2023/01/15 11:58:17;;;;;;;14.68;6.57;;;;;;;;;;10476493;28;20021;-78
2023/01/15 12:03:21;;;;;;;13.07;6.80;;;;;;;;;;10479834;28;20020;-76
2023/01/15 12:08:30;;;;;;;20.52;9.27;;;;;;;;;;10471094;28;20124;-77
2023/01/15 12:13:42;;;;;;;18.95;8.63;;;;;;;;;;10468758;28;20068;-72
2023/01/15 12:19:08;;;;;;;17.83;8.20;;;;;;;;;;10471914;28;20111;-77
2023/01/15 12:24:19;;;;;;;17.95;7.97;;;;;;;;;;10472440;28;20438;-81
2023/01/15 12:29:19;;;;;;;19.23;8.02;;;;;;;;;;10456786;28;20055;-76
2023/01/15 12:34:38;;;;;;;12.60;6.25;;;;;;;;;;10466830;28;20511;-77
2023/01/15 12:39:46;;;;;;;13.93;7.55;;;;;;;;;;10463746;28;20020;-77
2023/01/15 12:45:04;;;;;;;14.77;6.85;;;;;;;;;;10461998;28;20032;-71
2023/01/15 12:50:23;;;;;;;14.02;6.53;;;;;;;;;;10462597;28;20040;-78
2023/01/15 12:55:33;;;;;;;16.83;7.93;;;;;;;;;;10464805;28;20032;-76
2023/01/15 13:00:38;;;;;;;12.43;7.25;;;;;;;;;;10491435;28;20020;-75
2023/01/15 13:05:46;;;;;;;14.57;6.90;;;;;;;;;;10498566;28;20877;-76
2023/01/15 13:10:48;;;;;;;20.27;8.48;;;;;;;;;;10479191;28;20040;-76
2023/01/15 13:16:07;;;;;;;20.30;7.78;;;;;;;;;;10494702;28;20028;-74
2023/01/15 13:21:12;;;;;;;15.18;7.75;;;;;;;;;;10475948;28;20032;-77
2023/01/15 13:26:15;;;;;;;17.63;8.25;;;;;;;;;;10469748;28;20057;-74
2023/01/15 13:31:34;;;;;;;16.75;8.93;;;;;;;;;;10481775;28;20049;-78
2023/01/15 13:36:34;;;;;;;;;;;;;;;;;;10467694;28;20028;-78
2023/01/15 13:46:59;;;;;;;16.92;8.20;;;;;;;;;;10474334;28;20059;-73
2023/01/15 13:52:03;;;;;;;14.63;7.53;;;;;;;;;;10460097;28;20033;-72
2023/01/15 13:57:08;;;;;;;14.25;7.32;;;;;;;;;;10486344;28;20483;-76
2023/01/15 14:02:27;;;;;;;16.08;8.38;;;;;;;;;;10462002;28;20034;-77
2023/01/15 14:07:30;;;;;;;16.10;7.88;;;;;;;;;;10462571;28;20048;-73
2023/01/15 14:12:48;;;;;;;15.05;7.72;;;;;;;;;;10465069;28;20032;-73
2023/01/15 14:17:51;;;;;;;19.47;8.47;;;;;;;;;;10453344;28;20066;-76
2023/01/15 14:22:58;;;;;;;15.93;7.82;;;;;;;;;;10493876;22;20106;-75
2023/01/15 14:28:00;;;;;;;15.63;7.72;;;;;;;;;;10437433;28;20471;-77
2023/01/15 14:33:04;;;;;;;18.73;9.60;;;;;;;;;;10414344;28;20086;-77
2023/01/15 14:38:05;;;;;;;18.85;8.30;;;;;;;;;;10406584;28;20025;-74
2023/01/15 14:43:09;;;;;;;21.08;9.93;;;;;;;;;;10428383;28;20032;-78
2023/01/15 14:48:28;;;;;;;21.77;9.85;;;;;;;;;;10413295;28;20025;-72
2023/01/15 14:53:30;;;;;;;21.75;11.02;;;;;;;;;;10407462;28;20033;-73
2023/01/15 14:58:37;;;;;;;21.17;10.35;;;;;;;;;;10414449;28;20043;-74
2023/01/15 15:03:40;;;;;;;29.50;10.43;;;;;;;;;;10407547;28;20032;-73
2023/01/15 15:08:41;;;;;;;21.38;10.10;;;;;;;;;;10411700;28;20105;-77
2023/01/15 15:13:45;;;;;;;23.15;10.27;;;;;;;;;;10396351;28;20398;-72
2023/01/15 15:19:00;;;;;;;27.27;10.40;;;;;;;;;;10422681;28;20447;-75
2023/01/15 15:24:04;;;;;;;26.67;11.98;;;;;;;;;;10439165;28;20060;-73
2023/01/15 15:29:12;;;;;;;23.08;10.05;;;;;;;;;;10426622;28;20040;-71
2023/01/15 15:34:16;;;;;;;27.88;11.00;;;;;;;;;;10426407;28;20021;-75
2023/01/15 15:39:22;;;;;;;29.05;13.27;;;;;;;;;;10432070;28;20030;-74
2023/01/15 15:49:51;;;;;;;29.80;12.47;;;;;;;;;;10431936;28;20112;-75
2023/01/15 15:54:58;;;;;;;28.10;11.73;;;;;;;;;;10411499;28;20709;-74
2023/01/15 15:59:59;;;;;;;28.50;12.20;;;;;;;;;;10427326;28;20107;-72
2023/01/15 16:05:00;;;;;;;31.63;14.30;;;;;;;;;;10414754;28;20090;-75
2023/01/15 16:10:12;;;;;;;33.17;14.98;;;;;;;;;;10431490;28;20112;-71
2023/01/15 16:15:20;;;;;;;37.35;15.77;;;;;;;;;;10425942;28;20483;-72
2023/01/15 16:20:20;;;;;;;35.37;14.27;;;;;;;;;;10418273;28;20492;-72
2023/01/15 16:25:26;;;;;;;42.95;16.85;;;;;;;;;;10433314;28;20094;-76
2023/01/15 16:30:33;;;;;;;35.08;17.20;;;;;;;;;;10425832;28;20034;-76
2023/01/15 16:35:35;;;;;;;39.17;16.85;;;;;;;;;;10400164;28;20029;-78
2023/01/15 16:40:37;;;;;;;40.30;17.00;;;;;;;;;;10417505;28;20025;-78
2023/01/15 16:45:50;;;;;;;39.92;15.82;;;;;;;;;;10431821;28;20049;-75
2023/01/15 16:50:51;;;;;;;39.85;16.45;;;;;;;;;;10411161;28;20021;-77
2023/01/15 16:55:55;;;;;;;38.05;14.40;;;;;;;;;;10420271;28;20025;-75
2023/01/15 17:00:57;;;;;;;34.63;14.55;;;;;;;;;;10431076;28;20498;-76
2023/01/15 17:05:59;;;;;;;32.60;14.77;;;;;;;;;;10416545;28;20314;-74
2023/01/15 17:11:00;;;;;;;46.63;14.20;;;;;;;;;;10427754;28;20053;-72
2023/01/15 17:16:05;;;;;;;34.80;14.23;;;;;;;;;;10408441;28;20083;-71
2023/01/15 17:21:09;;;;;;;40.97;13.38;;;;;;;;;;10416600;28;20072;-74
2023/01/15 17:26:14;;;;;;;32.50;14.15;;;;;;;;;;10414814;28;20017;-75
2023/01/15 17:31:22;;;;;;;28.10;12.88;;;;;;;;;;10448374;28;20025;-73
2023/01/15 17:36:23;;;;;;;29.02;12.70;;;;;;;;;;10433262;28;20469;-74
2023/01/15 17:41:24;;;;;;;27.63;13.35;;;;;;;;;;10425623;28;20041;-72
2023/01/15 17:46:24;;;;;;;32.43;12.70;;;;;;;;;;10435725;28;20036;-74
2023/01/15 17:51:25;;;;;;;33.47;12.20;;;;;;;;;;10426730;28;20120;-75
2023/01/15 18:07:06;;;;;;;30.45;12.50;;;;;;;;;;10433411;28;20051;-71
2023/01/15 18:12:07;;;;;;;28.48;12.02;;;;;;;;;;10416516;28;20044;-72
2023/01/15 18:17:07;;;;;;;34.72;13.13;;;;;;;;;;10413836;28;20079;-71
2023/01/15 18:22:09;;;;;;;33.25;13.90;;;;;;;;;;10431887;28;20041;-71
2023/01/15 18:27:10;;;;;;;27.83;13.13;;;;;;;;;;10422413;28;20113;-74
2023/01/15 18:32:11;;;;;;;30.45;13.20;;;;;;;;;;10436284;28;20025;-73
2023/01/15 18:37:12;;;;;;;36.23;14.10;;;;;;;;;;10417417;28;20017;-74
2023/01/15 18:47:16;;;;;;;27.90;13.85;;;;;;;;;;10439359;28;20030;-77
2023/01/15 18:57:35;;;;;;;33.15;14.48;;;;;;;;;;10427148;28;20476;-75
2023/01/15 19:02:35;;;;;;;35.00;14.88;;;;;;;;;;10420723;28;20029;-75
2023/01/15 19:07:37;;;;;;;37.30;16.30;;;;;;;;;;10404252;28;20670;-75
2023/01/15 19:12:37;;;;;;;41.40;15.90;;;;;;;;;;10413531;28;20025;-75
2023/01/15 19:23:02;;;;;;;33.47;15.55;;;;;;;;;;10428901;28;20653;-80
2023/01/15 19:28:03;;;;;;;44.58;14.65;;;;;;;;;;10413901;28;20521;-76
2023/01/15 19:33:04;;;;;;;39.60;16.45;;;;;;;;;;10437430;28;20033;-72
2023/01/15 19:38:07;;;;;;;47.67;17.23;;;;;;;;;;10427869;28;20033;-75
2023/01/15 19:53:48;;;;;;;59.03;27.90;;;;;;;;;;10430587;28;20037;-77
2023/01/15 19:58:48;;;;;;;69.75;28.15;;;;;;;;;;10396593;28;20091;-78
2023/01/15 20:03:48;;;;;;;61.83;29.60;;;;;;;;;;10405039;28;20624;-75
2023/01/15 20:08:48;;;;;;;73.10;32.00;;;;;;;;;;10405249;28;20039;-71
2023/01/15 20:13:52;;;;;;;68.97;30.43;;;;;;;;;;10430074;28;20104;-74
2023/01/15 20:18:54;;;;;;;61.65;28.50;;;;;;;;;;10410163;28;20025;-74
2023/01/15 20:23:54;;;;;;;73.43;31.02;;;;;;;;;;10428805;28;20161;-75
2023/01/15 20:28:55;;;;;;;71.63;32.83;;;;;;;;;;10413811;28;20175;-73
2023/01/15 20:33:57;;;;;;;81.35;35.05;;;;;;;;;;10419282;28;20025;-73
2023/01/15 20:38:57;;;;;;;81.63;34.75;;;;;;;;;;10422311;28;20032;-72
2023/01/15 20:49:26;;;;;;;79.30;34.83;;;;;;;;;;10434049;28;20024;-76
2023/01/15 20:54:27;;;;;;;76.63;31.38;;;;;;;;;;10418524;28;20060;-73
2023/01/15 20:59:27;;;;;;;72.50;34.08;;;;;;;;;;10416232;28;20033;-76
2023/01/15 21:04:28;;;;;;;92.37;41.23;;;;;;;;;;10410998;28;20091;-74
2023/01/15 21:09:29;;;;;;;78.35;33.55;;;;;;;;;;10417227;28;20039;-75
2023/01/15 21:14:29;;;;;;;85.28;35.20;;;;;;;;;;10419844;28;20041;-79
2023/01/15 21:19:31;;;;;;;77.18;32.28;;;;;;;;;;10419485;28;20028;-76
2023/01/15 21:24:32;;;;;;;76.15;32.83;;;;;;;;;;10436408;28;20048;-74
2023/01/15 21:29:32;;;;;;;77.05;31.45;;;;;;;;;;10447330;28;20454;-76
2023/01/15 21:34:33;;;;;;;66.72;31.60;;;;;;;;;;10443638;28;20033;-74
2023/01/15 21:39:34;;;;;;;69.13;29.20;;;;;;;;;;10440790;28;20173;-74
2023/01/15 21:44:36;;;;;;;68.60;30.10;;;;;;;;;;10425512;28;20503;-77
2023/01/15 21:49:37;;;;;;;67.82;30.75;;;;;;;;;;10441409;28;20017;-76
2023/01/15 21:54:37;;;;;;;71.22;31.33;;;;;;;;;;10443979;28;20025;-75
2023/01/15 21:59:39;;;;;;;68.22;29.80;;;;;;;;;;10422854;28;20482;-76
2023/01/15 22:04:40;;;;;;;73.18;32.60;;;;;;;;;;10406186;28;20326;-73
2023/01/15 22:09:40;;;;;;;70.32;29.75;;;;;;;;;;10440345;28;20461;-72
2023/01/15 22:14:42;;;;;;;64.07;31.17;;;;;;;;;;10421450;28;20033;-72
2023/01/15 22:19:42;;;;;;;71.82;30.17;;;;;;;;;;10438626;28;20037;-71
2023/01/15 22:24:43;;;;;;;65.17;28.77;;;;;;;;;;10423177;28;20083;-73
2023/01/15 22:29:43;;;;;;;73.18;29.10;;;;;;;;;;10447749;28;20478;-73
2023/01/15 22:34:45;;;;;;;74.22;30.92;;;;;;;;;;10425232;28;21203;-71
2023/01/15 22:39:53;;;;;;;73.10;30.23;;;;;;;;;;10444140;28;20021;-74
2023/01/15 22:44:58;;;;;;;66.57;28.38;;;;;;;;;;10443804;28;20344;-73
2023/01/15 22:49:58;;;;;;;73.50;30.38;;;;;;;;;;10423126;28;20329;-71
2023/01/15 22:54:59;;;;;;;75.18;30.50;;;;;;;;;;10405663;28;20033;-72
2023/01/15 22:59:59;;;;;;;65.50;31.60;;;;;;;;;;10394705;28;20021;-72
2023/01/15 23:04:59;;;;;;;73.43;32.90;;;;;;;;;;10382419;28;20619;-78
2023/01/15 23:09:59;;;;;;;67.28;31.05;;;;;;;;;;10381183;28;20812;-73
2023/01/15 23:15:00;;;;;;;70.70;30.73;;;;;;;;;;10409189;28;20071;-75
2023/01/15 23:20:00;;;;;;;73.93;32.10;;;;;;;;;;10442327;28;20136;-76
2023/01/15 23:25:00;;;;;;;76.47;30.60;;;;;;;;;;10463665;28;20115;-75
2023/01/15 23:30:02;;;;;;;82.13;35.43;;;;;;;;;;10454579;28;20071;-74
2023/01/15 23:35:03;;;;;;;81.60;36.95;;;;;;;;;;10432245;28;20035;-73
2023/01/15 23:40:03;;;;;;;80.68;33.88;;;;;;;;;;10423318;28;20406;-73
2023/01/15 23:50:23;;;;;;;66.40;31.00;;;;;;;;;;10398036;28;20542;-75
2023/01/15 23:55:24;;;;;;;74.72;33.15;;;;;;;;;;10432915;28;20115;-72
